To NAV CANADA Home Page Login to a new session Search on AWWS site Disclaimer Vers la page française équivalente Tips FAQ What's new on the site To the Forecasts and Observations / NOTAM section To "File a Flight Plan" website Publications and other links Update of the User's profile FIC Telephone Numbers My Weather Data Folder Route Weather Data Regional Weather Data Local Weather Data To the Forecasts and Observations / NOTAM section
Request Generated 10/21/2018 at 05:56:53 UTC . Weather information available at that time is displayed.


Save this request - Inactive

METAR/TAF

If you find any discrepancies between the coded METAR/TAF and the plain language METAR/TAF please use the coded METAR/TAF. LWIS bulletins are not decoded in plain language.

EDMONTON INTL/AB    

METAR CYEG 210500Z 21004KT 20SM FEW250 M03/M09 A3003 RMK CI1 SLP200=
METAR
LOCATION
CYEG - EDMONTON INTL/AB
DATE - TIME
21 OCTOBER 2018 - 0500 UTC
WIND
210 TRUE @ 4  KNOTS
VISIBILITY
20 STAT.  MILES
RUNWAY VISUAL RANGE
WEATHER
CLOUDINESS
FEW CLOUDS (1/8 - 2/8) 25000  FT
TEMP / DEWPOINT
-3 C / -9 C
ALTIMETER
30.03 IN HG
RECENT WEATHER
WIND SHEAR

METAR CYEG 210400Z 21005KT 20SM FEW250 M02/M08 A3002 RMK CI2 SLP196=
METAR
LOCATION
CYEG - EDMONTON INTL/AB
DATE - TIME
21 OCTOBER 2018 - 0400 UTC
WIND
210 TRUE @ 5  KNOTS
VISIBILITY
20 STAT.  MILES
RUNWAY VISUAL RANGE
WEATHER
CLOUDINESS
FEW CLOUDS (1/8 - 2/8) 25000  FT
TEMP / DEWPOINT
-2 C / -8 C
ALTIMETER
30.02 IN HG
RECENT WEATHER
WIND SHEAR

METAR CYEG 210300Z 24005KT 20SM FEW090 FEW250 00/M08 A3000 RMK AC1CI1 AC TR SLP 3=
METAR
LOCATION
CYEG - EDMONTON INTL/AB
DATE - TIME
21 OCTOBER 2018 - 0300 UTC
WIND
240 TRUE @ 5  KNOTS
VISIBILITY
20 STAT.  MILES
RUNWAY VISUAL RANGE
WEATHER
CLOUDINESS
FEW CLOUDS (1/8 - 2/8) 9000  FT
FEW CLOUDS (1/8 - 2/8) 25000  FT
TEMP / DEWPOINT
0 C / -8 C
ALTIMETER
30.00 IN HG
RECENT WEATHER
WIND SHEAR

TAF CYEG 210538Z 2106/2206 22005KT P6SM FEW250 BECMG 2110/2112 24010KT BECMG 2116/2118 32012KT FM220200 VRB03KT P6SM SKC RMK NXT FCST BY 210900Z=
TAF
LOCATION

CYEG - EDMONTON INTL/AB
VALIDITY [UTC]
21 OCT - 0538 to
22 OCT - 0600
 
TIMES
[UTC]
WIND
[DEGREES TRUE]
VISIBILITY
[STAT. MILES]
WEATHER
CLOUDINESS
[FEET AGL]
 
21 OCT - 0600 to
22 OCT - 0200
220 @ 5 KNOTS
6+
NIL
25000 FEW
BECOMING
21 OCT - 1000 to
21 OCT - 1200
240 @ 10 KNOTS
 
 
 
BECOMING
21 OCT - 1600 to
21 OCT - 1800
320 @ 12 KNOTS
 
 
 
 
22 OCT - 0200 to
22 OCT - 0600
VARIABLE @ 3 KNOTS
6+
NIL
CLEAR SKY
REMARKS
THE NEXT FORECAST WILL BE ISSUED BY 0900 UTC ON DAY 21


EDMONTON/NAMAO/AB    

METAR CYED 210500Z AUTO 31007KT 9SM CLR 07/M06 A3001 RMK SLP183=
METAR
LOCATION
CYED - EDMONTON/NAMAO/AB
DATE - TIME
21 OCTOBER 2018 - 0500 UTC
WIND
310 TRUE @ 7  KNOTS
VISIBILITY
9 STAT.  MILES
RUNWAY VISUAL RANGE
WEATHER
CLOUDINESS
CLEAR SKY
TEMP / DEWPOINT
7 C / -6 C
ALTIMETER
30.01 IN HG
RECENT WEATHER
WIND SHEAR

METAR CYED 210400Z AUTO 27007KT 9SM CLR 06/M06 A3001 RMK SLP184=
METAR
LOCATION
CYED - EDMONTON/NAMAO/AB
DATE - TIME
21 OCTOBER 2018 - 0400 UTC
WIND
270 TRUE @ 7  KNOTS
VISIBILITY
9 STAT.  MILES
RUNWAY VISUAL RANGE
WEATHER
CLOUDINESS
CLEAR SKY
TEMP / DEWPOINT
6 C / -6 C
ALTIMETER
30.01 IN HG
RECENT WEATHER
WIND SHEAR

METAR CYED 210300Z AUTO 29006KT 9SM CLR 07/M06 A2999 RMK SLP178=
METAR
LOCATION
CYED - EDMONTON/NAMAO/AB
DATE - TIME
21 OCTOBER 2018 - 0300 UTC
WIND
290 TRUE @ 6  KNOTS
VISIBILITY
9 STAT.  MILES
RUNWAY VISUAL RANGE
WEATHER
CLOUDINESS
CLEAR SKY
TEMP / DEWPOINT
7 C / -6 C
ALTIMETER
29.99 IN HG
RECENT WEATHER
WIND SHEAR

*** REMARK        : Forecast period has ended; this was the last TAF issued
TAF AMD CYED 200546Z 2000/2012 FCST CNCLD DUE END OF FLYING PROGRAM RMK NXT FCST WILL BE ISSUED AT 221215Z=
AMENDED TAF

20 OCT 2018 - 0546 UTC
LOCATION

CYED - EDMONTON/NAMAO/AB
VALIDITY [UTC]
20 OCT - 0546 to
20 OCT - 1200

CANCELLED TAF

EDMONTON/VILLENEUVE/AB    (show WxCam)

METAR CZVL 210500Z AUTO 30007KT 9SM CLR 06/M07 A3002 RMK SLP183=
METAR
LOCATION
CZVL - EDMONTON/VILLENEUVE/AB
DATE - TIME
21 OCTOBER 2018 - 0500 UTC
WIND
300 TRUE @ 7  KNOTS
VISIBILITY
9 STAT.  MILES
RUNWAY VISUAL RANGE
WEATHER
CLOUDINESS
CLEAR SKY
TEMP / DEWPOINT
6 C / -7 C
ALTIMETER
30.02 IN HG
RECENT WEATHER
WIND SHEAR

METAR CZVL 210400Z AUTO 27003KT 9SM CLR 02/M07 A3002 RMK SLP188=
METAR
LOCATION
CZVL - EDMONTON/VILLENEUVE/AB
DATE - TIME
21 OCTOBER 2018 - 0400 UTC
WIND
270 TRUE @ 3  KNOTS
VISIBILITY
9 STAT.  MILES
RUNWAY VISUAL RANGE
WEATHER
CLOUDINESS
CLEAR SKY
TEMP / DEWPOINT
2 C / -7 C
ALTIMETER
30.02 IN HG
RECENT WEATHER
WIND SHEAR

METAR CZVL 210300Z AUTO 31006KT 9SM CLR 07/M07 A2999 RMK SLP181=
METAR
LOCATION
CZVL - EDMONTON/VILLENEUVE/AB
DATE - TIME
21 OCTOBER 2018 - 0300 UTC
WIND
310 TRUE @ 6  KNOTS
VISIBILITY
9 STAT.  MILES
RUNWAY VISUAL RANGE
WEATHER
CLOUDINESS
CLEAR SKY
TEMP / DEWPOINT
7 C / -7 C
ALTIMETER
29.99 IN HG
RECENT WEATHER
WIND SHEAR

TAF CZVL 210538Z 2106/2118 30005KT P6SM SKC BECMG 2116/2118 30012KT RMK FCST BASED ON AUTO OBS. NXT FCST BY 211200Z=
TAF

21 OCT 2018 - 0538 UTC
LOCATION

CZVL - EDMONTON/VILLENEUVE/AB
VALIDITY [UTC]
21 OCT - 0538 to
21 OCT - 1800
 
TIMES
[UTC]
WIND
[DEGREES TRUE]
VISIBILITY
[STAT. MILES]
WEATHER
CLOUDINESS
[FEET AGL]
 
21 OCT - 0600 to
21 OCT - 1800
300 @ 5 KNOTS
6+
NIL
CLEAR SKY
BECOMING
21 OCT - 1600 to
21 OCT - 1800
300 @ 12 KNOTS
 
 
 
REMARKS
THE FORECAST IS BASED ON AUTOMATIC OBSERVATIONS - THE NEXT FORECAST WILL BE ISSUED BY 1200 UTC ON DAY 21




Your time UTC time
Weather data provided by Environment Canada and NAV CANADA